Time;durP1;ratioP1;P1;durP2;ratioP2;P2;SDS_P1;SDS_P2;PMS_P1;PMS_P2;Temp;Humidity;BMP_temperature;BMP_pressure;BME280_temperature;BME280_humidity;BME280_pressure;Samples;Min_cycle;Max_cycle;Signal;HPM_P1;HPM_P2
2023/08/03 00:01:30;;;;;;;0.40;0.40;;;21.40;72.60;;;;;;5100081;27;20031;-76
2023/08/03 00:04:10;;;;;;;;;;;21.40;72.60;;;;;;5136310;27;20039;-75
2023/08/03 00:06:36;;;;;;;0.25;0.25;;;21.40;72.00;;;;;;5119054;27;19972;-75
2023/08/03 00:09:03;;;;;;;0.13;0.13;;;21.40;72.20;;;;;;5117162;27;20413;-73
2023/08/03 00:11:36;;;;;;;0.70;0.50;;;21.40;72.60;;;;;;5116904;27;20057;-74
2023/08/03 00:14:02;;;;;;;0.70;0.60;;;21.30;72.30;;;;;;5117042;27;20031;-76
2023/08/03 00:16:28;;;;;;;;;;;21.30;72.30;;;;;;5117099;27;20043;-73
2023/08/03 00:18:54;;;;;;;0.50;0.50;;;21.30;71.90;;;;;;5135441;27;19923;-75
2023/08/03 00:21:20;;;;;;;;;;;21.30;72.20;;;;;;5135404;27;20039;-75
2023/08/03 00:24:13;;;;;;;0.13;0.13;;;21.20;72.00;;;;;;5135373;27;20005;-73
2023/08/03 00:26:39;;;;;;;1.08;0.43;;;21.20;71.60;;;;;;5116545;27;20556;-73
2023/08/03 00:29:04;;;;;;;;;;;21.20;71.80;;;;;;5135861;27;20027;-76
2023/08/03 00:31:30;;;;;;;0.10;0.10;;;21.20;71.70;;;;;;5134376;27;19920;-73
2023/08/03 00:33:56;;;;;;;;;;;21.20;72.10;;;;;;5100228;27;20031;-75
2023/08/03 00:36:30;;;;;;;0.10;0.10;;;21.20;72.00;;;;;;5116255;27;20368;-73
2023/08/03 00:38:56;;;;;;;0.10;0.10;;;21.20;72.10;;;;;;5116644;27;20387;-75
2023/08/03 00:41:22;;;;;;;;;;;21.20;72.30;;;;;;5116626;27;20043;-75
2023/08/03 00:43:48;;;;;;;0.30;0.20;;;21.20;71.90;;;;;;5116331;27;19915;-73
2023/08/03 00:46:14;;;;;;;;;;;21.20;72.70;;;;;;5099574;27;20027;-75
2023/08/03 00:48:40;;;;;;;1.95;1.85;;;21.10;72.50;;;;;;5134737;27;19976;-73
2023/08/03 00:51:07;;;;;;;;;;;21.10;72.80;;;;;;5116434;27;20035;-75
2023/08/03 00:53:33;;;;;;;0.50;0.20;;;21.10;72.50;;;;;;5134975;27;19922;-74
2023/08/03 00:55:59;;;;;;;0.68;0.30;;;21.10;73.20;;;;;;5115860;27;20031;-74
2023/08/03 00:58:25;;;;;;;;;;;21.00;73.10;;;;;;5099910;27;20483;-76
2023/08/03 01:00:51;;;;;;;0.47;0.47;;;21.00;73.00;;;;;;5115654;27;20006;-74
2023/08/03 01:03:17;;;;;;;;;;;20.90;73.50;;;;;;5116610;27;20505;-73
2023/08/03 01:05:46;;;;;;;0.22;0.22;;;20.80;72.90;;;;;;5098474;27;19939;-74
2023/08/03 01:08:13;;;;;;;0.13;0.13;;;20.80;73.60;;;;;;5128655;27;20122;-75
2023/08/03 01:10:38;;;;;;;;;;;20.80;73.50;;;;;;5134540;27;20038;-74
2023/08/03 01:13:05;;;;;;;1.58;1.48;;;20.90;73.00;;;;;;5115724;27;20295;-75
2023/08/03 01:15:31;;;;;;;0.68;0.57;;;20.90;73.00;;;;;;5134165;27;20083;-75
2023/08/03 01:17:59;;;;;;;;;;;20.90;72.90;;;;;;5134712;27;20038;-74
2023/08/03 01:20:26;;;;;;;0.43;0.43;;;20.90;72.50;;;;;;5115645;27;19919;-74
2023/08/03 01:22:52;;;;;;;0.10;0.10;;;20.90;72.80;;;;;;5115751;27;20027;-74
2023/08/03 01:25:21;;;;;;;;;;;20.90;73.00;;;;;;5115930;27;20487;-73
2023/08/03 01:27:49;;;;;;;0.10;0.10;;;20.90;72.60;;;;;;5115746;27;19915;-76
2023/08/03 01:30:15;;;;;;;0.45;0.38;;;20.90;73.00;;;;;;5133375;27;20563;-74
2023/08/03 01:32:41;;;;;;;;;;;20.90;73.20;;;;;;5115689;27;20064;-75
2023/08/03 01:35:08;;;;;;;1.33;0.47;;;20.90;73.10;;;;;;5133507;27;20002;-75
2023/08/03 01:37:35;;;;;;;0.30;0.28;;;20.80;72.40;;;;;;5115628;27;20061;-73
2023/08/03 01:40:03;;;;;;;0.20;0.13;;;20.80;72.80;;;;;;5098380;27;20056;-75
2023/08/03 01:42:29;;;;;;;1.13;1.08;;;20.80;72.70;;;;;;5133436;27;20151;-73
2023/08/03 01:44:56;;;;;;;;;;;20.70;73.60;;;;;;5115716;27;20023;-76
2023/08/03 01:47:22;;;;;;;0.20;0.20;;;20.80;72.50;;;;;;5115051;27;19919;-73
2023/08/03 01:49:48;;;;;;;;;;;20.70;72.40;;;;;;5133789;27;20100;-75
2023/08/03 01:52:32;;;;;;;0.43;0.35;;;20.70;71.70;;;;;;5114966;27;19915;-73
2023/08/03 01:54:58;;;;;;;1.42;0.73;;;20.80;72.20;;;;;;5115292;27;20050;-73
2023/08/03 01:57:34;;;;;;;;;;;20.70;72.10;;;;;;5115467;27;20107;-75
2023/08/03 02:00:00;;;;;;;8.43;0.45;;;20.70;71.90;;;;;;5133491;27;20283;-76
2023/08/03 02:02:26;;;;;;;;;;;20.70;72.10;;;;;;5115159;28;20031;-74
2023/08/03 02:04:52;;;;;;;0.63;0.40;;;20.70;72.10;;;;;;5115410;28;19915;-75
2023/08/03 02:07:56;;;;;;;;;;;20.60;72.10;;;;;;5133593;28;20043;-73
2023/08/03 02:10:26;;;;;;;0.30;0.30;;;20.60;71.90;;;;;;5133135;28;19919;-76
2023/08/03 02:12:54;;;;;;;0.57;0.25;;;20.60;71.90;;;;;;5114878;28;20035;-73
2023/08/03 02:15:24;;;;;;;0.35;0.20;;;20.60;72.40;;;;;;5114436;28;20031;-74
2023/08/03 02:17:50;;;;;;;0.28;0.28;;;20.60;72.30;;;;;;5115176;28;20521;-73
2023/08/03 02:20:16;;;;;;;;;;;20.50;72.20;;;;;;5132016;28;20047;-75
2023/08/03 02:22:43;;;;;;;0.47;0.38;;;20.50;72.00;;;;;;5135382;27;19922;-75
2023/08/03 02:25:23;;;;;;;1.23;0.63;;;20.50;72.30;;;;;;5137413;27;20619;-74
2023/08/03 02:27:50;;;;;;;0.20;0.20;;;20.50;72.10;;;;;;5137502;27;20031;-73
2023/08/03 02:30:16;;;;;;;0.13;0.13;;;20.50;71.80;;;;;;5118662;27;20044;-76
2023/08/03 02:32:42;;;;;;;;;;;20.50;71.90;;;;;;5137958;27;20399;-73
2023/08/03 02:35:08;;;;;;;1.42;1.30;;;20.50;71.90;;;;;;5137278;27;20002;-73
2023/08/03 02:37:37;;;;;;;0.40;0.30;;;20.50;71.40;;;;;;5118822;27;20032;-73
2023/08/03 02:40:08;;;;;;;0.70;0.60;;;20.50;72.20;;;;;;5137395;27;20039;-73
2023/08/03 02:42:38;;;;;;;0.15;0.15;;;20.50;71.90;;;;;;5137153;27;20027;-75
2023/08/03 02:45:35;;;;;;;0.47;0.30;;;20.50;72.00;;;;;;5137123;27;20050;-75
2023/08/03 02:48:01;;;;;;;0.70;0.38;;;20.40;71.70;;;;;;5118805;27;20035;-73
2023/08/03 02:50:39;;;;;;;;;;;20.30;71.90;;;;;;5118996;27;20035;-73
2023/08/03 02:53:14;;;;;;;0.50;0.50;;;20.30;71.90;;;;;;5118491;27;19915;-75
2023/08/03 02:55:40;;;;;;;0.65;0.65;;;20.30;71.90;;;;;;5118600;27;20433;-73
2023/08/03 02:58:06;;;;;;;;;;;20.30;72.00;;;;;;5137513;27;20471;-73
2023/08/03 03:00:35;;;;;;;0.43;0.17;;;20.20;72.30;;;;;;5136323;27;19923;-76
2023/08/03 03:03:01;;;;;;;0.43;0.38;;;20.10;72.40;;;;;;5118044;27;20035;-73
2023/08/03 03:05:29;;;;;;;;;;;20.20;72.10;;;;;;5118592;27;20035;-76
2023/08/03 03:07:57;;;;;;;0.60;0.47;;;20.20;72.00;;;;;;5136645;27;19964;-74
2023/08/03 03:10:23;;;;;;;0.32;0.32;;;20.20;71.90;;;;;;5117914;27;20403;-76
2023/08/03 03:12:49;;;;;;;1.92;0.85;;;20.20;72.50;;;;;;5118202;27;20051;-75
2023/08/03 03:15:34;;;;;;;0.10;0.10;;;20.20;72.50;;;;;;5117794;27;20034;-73
2023/08/03 03:18:00;;;;;;;0.45;0.20;;;20.20;72.10;;;;;;5129402;27;20039;-74
2023/08/03 03:20:26;;;;;;;0.47;0.35;;;20.30;72.10;;;;;;5136057;27;20039;-75
2023/08/03 03:22:55;;;;;;;1.17;0.63;;;20.30;71.80;;;;;;5101022;27;20426;-74
2023/08/03 03:25:21;;;;;;;0.10;0.10;;;20.30;72.00;;;;;;5135910;27;20035;-73
2023/08/03 03:27:48;;;;;;;0.10;0.10;;;20.30;71.90;;;;;;5136441;27;20420;-73
2023/08/03 03:30:33;;;;;;;;;;;20.30;71.90;;;;;;5117976;27;20035;-73
2023/08/03 03:33:00;;;;;;;0.25;0.25;;;20.30;71.70;;;;;;5112778;28;19937;-76
2023/08/03 03:35:26;;;;;;;0.57;0.28;;;20.30;71.40;;;;;;5115370;28;20397;-73
2023/08/03 03:37:52;;;;;;;1.20;0.57;;;20.30;72.20;;;;;;5114352;28;20115;-73
2023/08/03 03:40:18;;;;;;;0.25;0.13;;;20.30;72.10;;;;;;5115135;28;20400;-73
2023/08/03 03:42:44;;;;;;;0.20;0.20;;;20.30;72.10;;;;;;5114150;28;20035;-76
2023/08/03 03:45:10;;;;;;;1.90;0.47;;;20.30;72.10;;;;;;5096610;28;20504;-76
2023/08/03 03:47:36;;;;;;;;;;;20.30;72.00;;;;;;5114683;28;20389;-76
2023/08/03 03:50:09;;;;;;;0.20;0.20;;;20.40;71.80;;;;;;5097038;28;19922;-73
2023/08/03 03:52:35;;;;;;;0.30;0.30;;;20.30;71.10;;;;;;5115319;28;20039;-74
2023/08/03 03:55:13;;;;;;;;;;;20.40;71.60;;;;;;5114479;28;20027;-75
2023/08/03 03:57:39;;;;;;;0.20;0.20;;;20.40;71.40;;;;;;5115279;28;20353;-73
2023/08/03 04:00:06;;;;;;;;;;;20.40;71.50;;;;;;5114163;28;20070;-73
2023/08/03 04:02:32;;;;;;;0.25;0.20;;;20.40;71.50;;;;;;5113609;28;19916;-73
2023/08/03 04:04:58;;;;;;;0.35;0.30;;;20.40;71.80;;;;;;5096851;28;20040;-76
2023/08/03 04:07:27;;;;;;;0.17;0.17;;;20.40;71.80;;;;;;5113397;28;20073;-73
2023/08/03 04:09:53;;;;;;;3.10;1.20;;;20.40;71.80;;;;;;5113835;28;20047;-75
2023/08/03 04:12:21;;;;;;;0.47;0.35;;;20.40;72.00;;;;;;5113167;28;20077;-76
2023/08/03 04:14:47;;;;;;;0.20;0.20;;;20.40;71.70;;;;;;5115175;28;20039;-76
2023/08/03 04:17:34;;;;;;;0.30;0.25;;;20.40;71.80;;;;;;5113180;28;20553;-76
2023/08/03 04:20:00;;;;;;;0.20;0.20;;;20.40;71.70;;;;;;5114673;28;20047;-76
2023/08/03 04:22:28;;;;;;;;;;;20.50;71.90;;;;;;5131002;27;20088;-75
2023/08/03 04:24:54;;;;;;;0.20;0.20;;;20.50;71.80;;;;;;5113482;28;19951;-76
2023/08/03 04:27:20;;;;;;;0.65;0.65;;;20.50;71.70;;;;;;5113001;28;20526;-72
2023/08/03 04:29:46;;;;;;;0.55;0.55;;;20.50;71.70;;;;;;5114928;28;20084;-73
2023/08/03 04:32:12;;;;;;;0.35;0.25;;;20.50;71.80;;;;;;5124819;27;20051;-75
2023/08/03 04:34:38;;;;;;;;;;;20.50;71.80;;;;;;5116862;27;20080;-73
2023/08/03 04:37:05;;;;;;;1.23;0.63;;;20.60;71.80;;;;;;5134422;27;20479;-73
2023/08/03 04:40:12;;;;;;;0.35;0.30;;;20.50;72.10;;;;;;5116402;27;20068;-76
2023/08/03 04:42:38;;;;;;;2.40;1.10;;;20.50;72.10;;;;;;5115810;27;20059;-73
2023/08/03 04:45:06;;;;;;;;;;;20.60;72.10;;;;;;5133901;27;20035;-73
2023/08/03 04:47:32;;;;;;;3.90;1.00;;;20.60;71.90;;;;;;5116183;27;19961;-74
2023/08/03 04:49:58;;;;;;;0.20;0.20;;;20.60;71.80;;;;;;5116613;27;20031;-74
2023/08/03 04:52:24;;;;;;;0.90;0.68;;;20.70;71.90;;;;;;5115827;27;20099;-77
2023/08/03 04:54:53;;;;;;;;;;;20.60;72.20;;;;;;5135210;27;20031;-76
2023/08/03 04:57:19;;;;;;;1.00;0.52;;;20.70;72.00;;;;;;5134253;27;20303;-75
2023/08/03 04:59:45;;;;;;;1.13;0.98;;;20.70;72.00;;;;;;5099049;27;20027;-74
2023/08/03 05:02:11;;;;;;;2.75;0.85;;;20.80;71.90;;;;;;5115418;27;20039;-73
2023/08/03 05:04:37;;;;;;;;;;;20.80;71.70;;;;;;5116473;27;20043;-74
2023/08/03 05:07:27;;;;;;;0.75;0.45;;;20.90;71.90;;;;;;5115411;27;20435;-73
2023/08/03 05:09:54;;;;;;;0.43;0.35;;;20.90;70.80;;;;;;5115849;27;20047;-73
2023/08/03 05:12:20;;;;;;;0.20;0.20;;;21.00;70.80;;;;;;5115391;27;20085;-73
2023/08/03 05:14:45;;;;;;;;;;;21.00;71.50;;;;;;5116289;27;20036;-73
2023/08/03 05:17:14;;;;;;;0.43;0.38;;;21.10;71.50;;;;;;5115082;27;19915;-73
2023/08/03 05:19:40;;;;;;;0.40;0.40;;;21.10;71.40;;;;;;5115828;27;20539;-75
2023/08/03 05:22:06;;;;;;;;;;;21.10;71.90;;;;;;5115861;27;20423;-73
2023/08/03 05:24:32;;;;;;;1.48;0.82;;;21.20;72.00;;;;;;5115884;27;20014;-73
2023/08/03 05:26:58;;;;;;;0.43;0.30;;;21.20;72.60;;;;;;5133733;27;20111;-76
2023/08/03 05:29:25;;;;;;;;;;;21.20;72.60;;;;;;5099023;27;20041;-76
2023/08/03 05:31:51;;;;;;;0.38;0.22;;;21.30;72.40;;;;;;5133151;27;19915;-75
2023/08/03 05:34:17;;;;;;;0.40;0.40;;;21.30;72.50;;;;;;5115686;27;20100;-73
2023/08/03 05:36:43;;;;;;;;;;;21.30;73.00;;;;;;5115618;27;20031;-73
2023/08/03 05:39:28;;;;;;;0.28;0.28;;;21.40;72.50;;;;;;5115652;27;19994;-73
2023/08/03 05:41:54;;;;;;;3.10;0.55;;;21.60;72.70;;;;;;5114864;27;20039;-76
2023/08/03 05:44:20;;;;;;;0.70;0.40;;;21.60;73.00;;;;;;5115441;27;20035;-76
2023/08/03 05:46:46;;;;;;;;;;;21.70;74.10;;;;;;5134123;27;20085;-76
2023/08/03 05:49:13;;;;;;;0.90;0.75;;;21.80;72.80;;;;;;5133670;27;19937;-76
2023/08/03 05:51:42;;;;;;;0.22;0.22;;;21.90;73.50;;;;;;5114980;27;20043;-74
2023/08/03 05:54:17;;;;;;;1.00;0.70;;;22.10;73.90;;;;;;5115663;27;20091;-76
2023/08/03 05:56:46;;;;;;;0.40;0.40;;;22.20;73.60;;;;;;5114482;28;20445;-76
2023/08/03 05:59:36;;;;;;;0.20;0.20;;;22.30;73.50;;;;;;5115283;27;20031;-79
2023/08/03 06:02:05;;;;;;;0.10;0.10;;;22.40;72.90;;;;;;5106323;28;20113;-73
2023/08/03 06:04:31;;;;;;;0.68;0.57;;;22.60;72.80;;;;;;5133739;27;20401;-73
2023/08/03 06:07:08;;;;;;;;;;;22.70;73.30;;;;;;5134034;27;20060;-73
2023/08/03 06:09:34;;;;;;;1.42;0.93;;;22.80;73.00;;;;;;5115166;28;19915;-73
2023/08/03 06:12:00;;;;;;;0.15;0.15;;;22.80;72.40;;;;;;5114599;28;20071;-77
2023/08/03 06:14:26;;;;;;;;;;;22.90;72.80;;;;;;5115519;28;20035;-73
2023/08/03 06:16:58;;;;;;;1.48;0.90;;;23.10;72.10;;;;;;5114834;28;19916;-73
2023/08/03 06:19:29;;;;;;;1.05;0.77;;;23.10;72.70;;;;;;5114928;28;20395;-73
2023/08/03 06:21:55;;;;;;;0.65;0.63;;;23.30;72.70;;;;;;5114567;28;20391;-73
2023/08/03 06:24:22;;;;;;;;;;;23.40;72.50;;;;;;5133794;28;20541;-73
2023/08/03 06:26:54;;;;;;;0.45;0.45;;;23.50;72.50;;;;;;5114798;28;19921;-73
2023/08/03 06:29:20;;;;;;;1.55;0.73;;;23.60;70.90;;;;;;5114895;28;20043;-73
2023/08/03 06:31:47;;;;;;;1.25;0.60;;;23.70;71.40;;;;;;5096890;28;20043;-73
2023/08/03 06:34:13;;;;;;;0.75;0.50;;;23.80;71.00;;;;;;5114818;28;20035;-75
2023/08/03 06:36:42;;;;;;;0.17;0.17;;;23.90;70.60;;;;;;5133036;28;20038;-73
2023/08/03 06:39:14;;;;;;;1.05;0.95;;;24.00;70.60;;;;;;5114958;28;20495;-73
2023/08/03 06:41:40;;;;;;;1.10;0.95;;;24.20;70.50;;;;;;5114207;28;20038;-76
2023/08/03 06:44:08;;;;;;;3.05;1.02;;;24.40;70.20;;;;;;5114844;28;20065;-76
2023/08/03 06:46:58;;;;;;;0.93;0.63;;;24.50;70.30;;;;;;5132980;28;20372;-74
2023/08/03 06:49:24;;;;;;;1.40;1.30;;;24.70;69.40;;;;;;5114746;28;20039;-73
2023/08/03 06:51:53;;;;;;;0.30;0.30;;;24.90;69.00;;;;;;5114282;28;20038;-79
2023/08/03 06:54:19;;;;;;;0.57;0.30;;;25.00;68.50;;;;;;5114768;28;20149;-73
2023/08/03 06:56:45;;;;;;;0.63;0.63;;;25.10;67.50;;;;;;5114428;28;20084;-73
2023/08/03 06:59:13;;;;;;;2.17;0.75;;;25.30;67.10;;;;;;5133256;28;20035;-77
2023/08/03 07:01:39;;;;;;;0.73;0.50;;;25.50;66.80;;;;;;5132333;28;20031;-73
2023/08/03 07:04:05;;;;;;;1.42;0.63;;;25.70;65.80;;;;;;5114772;28;20031;-80
2023/08/03 07:06:31;;;;;;;1.23;0.65;;;25.80;65.60;;;;;;5114228;28;20495;-79
2023/08/03 07:09:00;;;;;;;0.40;0.30;;;26.00;65.10;;;;;;5135053;27;20035;-74
2023/08/03 07:11:26;;;;;;;0.70;0.40;;;26.10;64.00;;;;;;5136651;27;20365;-81
2023/08/03 07:13:52;;;;;;;2.55;1.50;;;26.20;64.20;;;;;;5101111;27;20058;-75
2023/08/03 07:16:18;;;;;;;1.17;0.60;;;26.40;64.30;;;;;;5136528;27;20035;-80
2023/08/03 07:18:47;;;;;;;3.40;0.80;;;26.50;63.70;;;;;;5136306;27;20039;-74
2023/08/03 07:21:13;;;;;;;0.63;0.63;;;26.70;62.90;;;;;;5117715;27;20081;-81
2023/08/03 07:23:39;;;;;;;0.52;0.52;;;26.80;61.20;;;;;;5136341;27;20031;-79
2023/08/03 07:26:16;;;;;;;2.03;1.13;;;27.00;61.40;;;;;;5100644;27;20031;-79
2023/08/03 07:28:42;;;;;;;0.75;0.65;;;27.20;61.00;;;;;;5136563;27;20471;-74
2023/08/03 07:31:27;;;;;;;1.60;0.57;;;27.40;60.50;;;;;;5134403;27;20533;-80
2023/08/03 07:33:54;;;;;;;1.48;0.70;;;27.60;60.30;;;;;;5117032;27;20136;-73
2023/08/03 07:36:20;;;;;;;2.25;0.70;;;27.70;60.00;;;;;;5115305;28;20028;-79
2023/08/03 07:38:46;;;;;;;0.47;0.45;;;27.70;59.30;;;;;;5097446;28;20043;-73
2023/08/03 07:41:12;;;;;;;4.35;1.23;;;27.80;59.00;;;;;;5096843;28;20081;-74
2023/08/03 07:44:21;;;;;;;1.45;0.73;;;27.70;58.90;;;;;;5115554;28;20053;-74
2023/08/03 07:46:47;;;;;;;0.73;0.70;;;27.70;57.80;;;;;;5114341;28;20048;-74
2023/08/03 07:49:13;;;;;;;0.65;0.65;;;27.80;58.60;;;;;;5114262;28;20156;-74
2023/08/03 07:51:47;;;;;;;1.38;0.85;;;27.90;58.40;;;;;;5096851;28;20043;-73
2023/08/03 07:54:13;;;;;;;1.70;0.93;;;28.00;58.60;;;;;;5115164;28;20043;-81
2023/08/03 07:56:40;;;;;;;2.63;1.02;;;28.10;59.20;;;;;;5114819;28;20031;-81
2023/08/03 07:59:06;;;;;;;0.30;0.30;;;28.10;57.30;;;;;;5115441;28;20529;-81
2023/08/03 08:01:32;;;;;;;2.13;1.40;;;28.20;57.60;;;;;;5112819;28;20055;-76
2023/08/03 08:03:58;;;;;;;0.68;0.68;;;28.30;55.30;;;;;;5096836;28;20144;-75
2023/08/03 08:06:24;;;;;;;1.02;0.90;;;28.30;53.40;;;;;;5113562;28;20055;-75
2023/08/03 08:08:51;;;;;;;2.15;1.15;;;28.30;53.40;;;;;;5113904;28;20488;-74
2023/08/03 08:11:19;;;;;;;2.22;0.60;;;28.40;53.80;;;;;;5079349;28;20050;-77
2023/08/03 08:13:45;;;;;;;1.80;0.52;;;28.70;52.70;;;;;;5096580;28;20039;-79
2023/08/03 08:16:14;;;;;;;0.68;0.60;;;29.00;53.40;;;;;;5113212;28;20036;-73
2023/08/03 08:18:40;;;;;;;2.03;0.47;;;29.20;53.00;;;;;;5113664;28;20035;-73
2023/08/03 08:21:10;;;;;;;0.70;0.63;;;29.50;51.70;;;;;;5078374;28;20057;-74
2023/08/03 08:23:38;;;;;;;2.58;1.27;;;29.90;50.20;;;;;;5096681;28;20024;-74
2023/08/03 08:26:23;;;;;;;0.65;0.43;;;30.20;50.10;;;;;;5095984;28;20035;-80
2023/08/03 08:28:59;;;;;;;;;;;;;;;;;;;;;
2023/08/03 08:31:26;;;;;;;1.05;0.95;;;31.20;49.10;;;;;;5113487;28;20047;-80
2023/08/03 08:33:54;;;;;;;0.40;0.25;;;31.70;47.60;;;;;;5113451;28;20040;-73
2023/08/03 08:36:20;;;;;;;7.72;1.70;;;32.20;44.70;;;;;;5112781;28;20031;-75
2023/08/03 08:38:46;;;;;;;1.13;0.70;;;32.50;42.40;;;;;;5114427;28;20039;-74
2023/08/03 08:41:12;;;;;;;1.00;0.70;;;32.80;40.50;;;;;;5114052;28;20081;-78
2023/08/03 08:43:41;;;;;;;0.77;0.65;;;33.10;40.70;;;;;;5096018;28;20045;-81
2023/08/03 08:46:11;;;;;;;1.65;0.80;;;33.50;39.20;;;;;;5095901;28;20425;-83
2023/08/03 08:48:37;;;;;;;0.40;0.40;;;33.90;36.80;;;;;;5079287;28;20396;-76
2023/08/03 08:51:05;;;;;;;0.93;0.65;;;34.30;37.40;;;;;;5095943;28;20028;-81
2023/08/03 08:53:31;;;;;;;0.55;0.52;;;34.70;36.50;;;;;;5096067;28;20119;-80
2023/08/03 08:56:17;;;;;;;0.60;0.60;;;35.00;35.50;;;;;;5112406;28;20038;-81
2023/08/03 08:58:43;;;;;;;0.95;0.65;;;35.30;34.40;;;;;;5114129;28;20035;-82
2023/08/03 09:01:09;;;;;;;0.88;0.60;;;35.50;32.60;;;;;;5094918;28;20480;-75
2023/08/03 09:04:00;;;;;;;2.30;1.17;;;35.80;32.40;;;;;;5113865;28;20031;-80
2023/08/03 09:06:26;;;;;;;1.00;0.93;;;36.40;33.90;;;;;;5095333;28;20035;-79
2023/08/03 09:08:55;;;;;;;0.47;0.45;;;37.10;33.30;;;;;;5095397;28;20050;-76
2023/08/03 09:11:41;;;;;;;0.80;0.55;;;37.30;31.20;;;;;;5095136;28;20379;-75
2023/08/03 09:14:08;;;;;;;0.73;0.52;;;37.50;30.30;;;;;;5095520;28;20111;-75
2023/08/03 09:16:35;;;;;;;0.70;0.70;;;37.70;30.20;;;;;;5095008;28;20042;-74
2023/08/03 09:19:01;;;;;;;0.63;0.63;;;38.20;29.30;;;;;;5095472;28;20032;-79
2023/08/03 09:21:30;;;;;;;0.80;0.65;;;38.60;30.20;;;;;;5094928;28;20453;-81
2023/08/03 09:23:56;;;;;;;0.68;0.60;;;39.40;29.50;;;;;;5112322;27;20031;-77
2023/08/03 09:26:45;;;;;;;0.70;0.70;;;39.90;28.10;;;;;;5106012;27;20031;-80
2023/08/03 09:29:30;;;;;;;0.60;0.60;;;40.40;27.60;;;;;;5118983;27;20036;-75
2023/08/03 09:32:15;;;;;;;0.75;0.75;;;40.90;26.80;;;;;;5099354;27;20047;-75
2023/08/03 09:34:44;;;;;;;1.27;1.15;;;41.50;26.50;;;;;;5102536;27;20032;-75
2023/08/03 09:37:37;;;;;;;2.83;1.52;;;41.90;25.20;;;;;;5096990;27;20077;-80
2023/08/03 09:40:04;;;;;;;1.70;1.13;;;41.90;25.00;;;;;;5105481;28;20435;-80
2023/08/03 09:42:42;;;;;;;0.68;0.50;;;42.20;23.90;;;;;;5098867;28;20089;-75
2023/08/03 09:45:09;;;;;;;0.98;0.80;;;42.20;25.10;;;;;;5119087;27;20070;-74
2023/08/03 09:47:36;;;;;;;0.80;0.68;;;42.50;24.30;;;;;;5108051;27;20035;-78
2023/08/03 09:50:03;;;;;;;0.93;0.90;;;43.10;24.00;;;;;;5086245;27;20031;-76
2023/08/03 09:52:31;;;;;;;1.20;1.10;;;43.70;22.90;;;;;;5102304;27;20041;-84
2023/08/03 09:55:40;;;;;;;1.55;1.30;;;44.00;23.00;;;;;;5097495;28;20079;-87
2023/08/03 09:58:09;;;;;;;0.70;0.70;;;44.60;21.90;;;;;;5097977;27;20134;-83
2023/08/03 10:03:23;;;;;;;2.17;1.33;;;44.80;21.80;;;;;;5108440;28;20046;-76
2023/08/03 10:06:01;;;;;;;1.05;0.95;;;44.60;21.50;;;;;;5108555;27;20406;-76
2023/08/03 10:08:32;;;;;;;1.20;1.00;;;44.50;21.20;;;;;;5102719;28;20111;-76
2023/08/03 10:11:01;;;;;;;1.48;1.35;;;44.10;21.50;;;;;;5083062;28;20054;-76
2023/08/03 10:13:32;;;;;;;2.47;1.40;;;42.80;22.60;;;;;;5092226;28;20038;-84
2023/08/03 10:16:02;;;;;;;6.35;2.17;;;42.10;23.20;;;;;;5122669;28;20538;-77
2023/08/03 10:18:51;;;;;;;0.77;0.77;;;42.00;22.90;;;;;;5094197;28;20186;-76
2023/08/03 10:21:17;;;;;;;0.95;0.85;;;41.70;24.20;;;;;;5060709;28;20102;-83
2023/08/03 10:24:21;;;;;;;1.58;0.90;;;43.00;23.70;;;;;;5024906;28;20471;-76
2023/08/03 10:27:25;;;;;;;1.05;1.05;;;44.20;22.10;;;;;;5052915;28;20131;-85
2023/08/03 10:30:10;;;;;;;0.90;0.80;;;44.70;21.70;;;;;;5053604;28;20040;-80
2023/08/03 10:32:51;;;;;;;1.02;0.95;;;45.20;21.20;;;;;;5056417;28;20095;-84
2023/08/03 10:35:38;;;;;;;0.88;0.88;;;45.50;21.70;;;;;;5063888;28;20055;-76
2023/08/03 10:38:41;;;;;;;1.30;1.00;;;45.70;21.00;;;;;;5063713;28;20068;-83
2023/08/03 10:41:27;;;;;;;2.17;1.33;;;43.80;21.20;;;;;;5051256;28;20079;-82
2023/08/03 10:44:12;;;;;;;1.33;1.00;;;43.50;23.20;;;;;;5071696;28;20059;-81
2023/08/03 10:46:51;;;;;;;1.13;1.00;;;44.20;22.20;;;;;;5056435;28;20071;-77
2023/08/03 10:50:00;;;;;;;0.70;0.70;;;43.40;23.00;;;;;;5073943;28;20069;-81
2023/08/03 10:52:47;;;;;;;0.93;0.68;;;44.40;22.60;;;;;;5056706;28;20448;-79
2023/08/03 10:55:35;;;;;;;1.92;1.50;;;45.40;21.20;;;;;;5056442;28;20505;-82
2023/08/03 10:58:01;;;;;;;2.30;1.40;;;46.40;20.40;;;;;;5063775;28;20131;-76
2023/08/03 11:00:27;;;;;;;0.90;0.90;;;46.80;19.60;;;;;;5077625;28;20059;-85
2023/08/03 11:03:19;;;;;;;1.10;1.00;;;45.60;20.50;;;;;;5061062;28;20093;-77
2023/08/03 11:06:16;;;;;;;1.15;1.05;;;43.90;21.70;;;;;;4996873;28;20042;-76
2023/08/03 11:08:47;;;;;;;1.58;1.48;;;43.20;23.00;;;;;;5096644;28;20156;-86
2023/08/03 11:11:40;;;;;;;1.40;1.10;;;42.70;23.60;;;;;;5077881;28;20033;-84
2023/08/03 11:14:28;;;;;;;1.10;1.00;;;42.70;23.40;;;;;;5077939;28;20035;-84
2023/08/03 11:17:07;;;;;;;0.68;0.68;;;42.20;23.70;;;;;;5077378;28;20044;-83
2023/08/03 11:19:40;;;;;;;0.90;0.80;;;41.20;24.80;;;;;;5078123;28;20035;-76
2023/08/03 11:22:08;;;;;;;0.98;0.73;;;41.40;25.40;;;;;;5077113;28;20039;-82
2023/08/03 11:24:42;;;;;;;1.25;0.98;;;42.10;25.20;;;;;;5078116;28;20038;-83
2023/08/03 11:27:13;;;;;;;0.90;0.88;;;43.60;23.20;;;;;;5078085;28;20081;-84
2023/08/03 11:29:42;;;;;;;0.98;0.90;;;44.80;21.80;;;;;;5077579;28;20038;-83
2023/08/03 11:32:11;;;;;;;2.47;1.13;;;45.90;21.20;;;;;;5104098;28;20054;-76
2023/08/03 11:34:39;;;;;;;1.10;1.00;;;46.30;20.10;;;;;;5115819;28;20605;-75
2023/08/03 11:37:06;;;;;;;1.75;1.30;;;46.50;20.00;;;;;;5080269;28;20031;-82
2023/08/03 11:39:34;;;;;;;0.70;0.70;;;45.30;20.30;;;;;;5097617;28;20111;-76
2023/08/03 11:42:02;;;;;;;1.10;1.00;;;43.80;22.40;;;;;;5096819;28;20051;-76
2023/08/03 11:44:31;;;;;;;2.63;2.28;;;42.40;24.00;;;;;;5097558;28;20426;-80
2023/08/03 11:47:15;;;;;;;1.23;1.08;;;41.30;24.30;;;;;;5079955;28;20039;-76
2023/08/03 11:49:42;;;;;;;0.95;0.80;;;39.80;25.50;;;;;;5080309;28;20412;-79
2023/08/03 11:52:42;;;;;;;3.42;1.23;;;38.90;27.00;;;;;;5096724;28;20039;-81
2023/08/03 11:55:47;;;;;;;0.95;0.77;;;38.80;27.40;;;;;;5098047;28;20495;-80
2023/08/03 11:58:13;;;;;;;0.95;0.90;;;40.10;27.00;;;;;;5080226;28;20138;-80
2023/08/03 12:00:42;;;;;;;1.33;1.10;;;41.20;25.10;;;;;;5096558;28;20289;-78
2023/08/03 12:03:11;;;;;;;1.00;0.90;;;42.00;24.20;;;;;;5096802;28;20492;-80
2023/08/03 12:06:18;;;;;;;4.10;1.27;;;40.50;25.40;;;;;;5096899;28;20044;-75
2023/08/03 12:11:34;;;;;;;1.42;0.93;;;37.90;28.80;;;;;;5051428;28;19916;-79
2023/08/03 12:14:00;;;;;;;0.98;0.77;;;37.50;30.10;;;;;;5035156;28;20087;-75
2023/08/03 12:16:26;;;;;;;0.63;0.63;;;37.10;31.30;;;;;;5051495;28;20033;-80
2023/08/03 12:18:53;;;;;;;1.90;1.20;;;36.80;31.00;;;;;;5035303;28;20045;-82
2023/08/03 12:21:19;;;;;;;1.60;1.40;;;36.20;31.80;;;;;;5051163;28;20077;-83
2023/08/03 12:23:48;;;;;;;0.82;0.75;;;35.90;33.10;;;;;;5051662;28;20071;-78
2023/08/03 12:26:14;;;;;;;0.80;0.73;;;35.40;33.70;;;;;;5034678;28;20180;-80
2023/08/03 12:28:40;;;;;;;0.40;0.40;;;35.00;35.00;;;;;;5051649;28;20037;-82
2023/08/03 12:31:06;;;;;;;0.75;0.65;;;34.70;35.20;;;;;;5033954;28;20044;-76
2023/08/03 12:36:17;;;;;;;0.50;0.50;;;34.10;36.10;;;;;;5036951;28;20080;-83
2023/08/03 12:38:49;;;;;;;1.13;0.82;;;33.80;37.20;;;;;;5034897;28;20037;-80
2023/08/03 12:41:17;;;;;;;0.60;0.60;;;33.70;37.30;;;;;;5074513;28;20047;-80
2023/08/03 12:43:43;;;;;;;1.25;0.70;;;33.50;38.40;;;;;;5096263;28;20032;-75
2023/08/03 12:46:09;;;;;;;0.65;0.65;;;33.60;39.30;;;;;;5095734;28;20069;-76
2023/08/03 12:48:36;;;;;;;1.48;0.60;;;33.50;38.90;;;;;;5095992;28;20036;-80
2023/08/03 12:51:02;;;;;;;0.93;0.80;;;33.30;38.60;;;;;;5078712;28;20399;-81
2023/08/03 12:53:28;;;;;;;0.77;0.60;;;33.10;40.00;;;;;;5113237;28;20053;-80
2023/08/03 12:55:57;;;;;;;0.55;0.50;;;33.00;39.90;;;;;;5095630;28;20388;-77
2023/08/03 13:01:09;;;;;;;0.75;0.60;;;32.60;41.00;;;;;;5082683;28;20431;-73
2023/08/03 13:03:36;;;;;;;2.17;1.25;;;32.60;41.60;;;;;;5096037;28;20032;-80
2023/08/03 13:06:05;;;;;;;1.48;1.33;;;32.60;41.30;;;;;;5095106;28;20502;-81
2023/08/03 13:08:43;;;;;;;;;;;;;;;;;;;;;
2023/08/03 13:11:41;;;;;;;1.13;0.90;;;32.50;41.40;;;;;;5112795;28;20044;-81
2023/08/03 13:14:07;;;;;;;1.13;0.90;;;32.50;41.20;;;;;;5113526;28;20092;-74
2023/08/03 13:16:33;;;;;;;1.65;1.13;;;32.60;42.50;;;;;;5113500;28;20422;-73
2023/08/03 13:19:14;;;;;;;0.90;0.50;;;32.60;42.90;;;;;;5078417;28;20089;-74
2023/08/03 13:21:46;;;;;;;0.70;0.70;;;32.90;41.90;;;;;;5078255;28;20088;-81
2023/08/03 13:24:33;;;;;;;0.52;0.43;;;34.00;39.80;;;;;;5113561;28;20036;-75
2023/08/03 13:27:21;;;;;;;0.80;0.68;;;36.30;35.30;;;;;;5113784;28;20047;-79
2023/08/03 13:29:49;;;;;;;0.68;0.60;;;38.60;31.30;;;;;;5096012;28;20422;-76
2023/08/03 13:32:16;;;;;;;0.60;0.60;;;40.00;29.10;;;;;;5112244;28;20067;-74